createdAt,value
2023-03-30T14:56:04.941Z,99295.23
2023-03-30T14:58:35.078Z,99288.23
2023-03-30T15:01:09.668Z,99289.90
2023-03-30T15:03:40.209Z,99284.84
2023-03-30T15:06:15.089Z,99284.71
2023-03-30T15:08:47.079Z,99281.02
2023-03-30T15:11:22.058Z,99283.27
2023-03-30T15:13:55.130Z,99293.56
2023-03-30T15:16:28.802Z,99290.82
2023-03-30T15:19:06.261Z,99283.95
2023-03-30T15:21:37.367Z,99289.71
2023-03-30T15:24:17.189Z,99289.20
2023-03-30T15:26:49.797Z,99284.05
2023-03-30T15:29:20.784Z,99289.33
2023-03-30T15:32:12.536Z,99283.04
2023-03-30T15:35:06.012Z,99285.16
2023-03-30T15:37:36.829Z,99276.16
2023-03-30T15:40:30.680Z,99277.44
2023-03-30T15:43:22.427Z,99279.68
2023-03-30T15:45:55.305Z,99265.40
2023-03-30T15:48:27.186Z,99266.30
2023-03-30T15:51:39.016Z,99263.51
2023-03-30T15:54:17.062Z,99286.30
2023-03-30T15:57:14.585Z,99278.73
2023-03-30T15:59:52.798Z,99280.77
2023-03-30T16:02:38.127Z,99281.36
2023-03-30T16:05:17.453Z,99276.85
2023-03-30T16:07:47.004Z,99275.95
2023-03-30T16:10:21.644Z,99270.13
2023-03-30T16:12:53.308Z,99272.98
2023-03-30T16:15:25.003Z,99273.90
2023-03-30T16:17:53.973Z,99276.92
2023-03-30T16:20:24.397Z,99273.42
2023-03-30T16:22:53.819Z,99276.71
2023-03-30T16:25:41.748Z,99271.98
2023-03-30T16:28:17.636Z,99269.46
2023-03-30T16:30:49.660Z,99266.62
2023-03-30T16:33:18.680Z,99270.34
2023-03-30T16:35:47.898Z,99267.75
2023-03-30T16:38:20.694Z,99265.08
2023-03-30T16:40:54.051Z,99257.02
2023-03-30T16:43:22.841Z,99251.46
2023-03-30T16:45:52.102Z,99249.64
2023-03-30T16:48:22.188Z,99247.25
2023-03-30T16:50:54.621Z,99251.19
2023-03-30T16:53:25.612Z,99241.34
2023-03-30T16:55:55.344Z,99235.98
2023-03-30T16:58:25.166Z,99239.05
2023-03-30T17:01:02.030Z,99242.94
2023-03-30T17:03:32.983Z,99249.85
2023-03-30T17:06:02.469Z,99263.89
2023-03-30T17:08:32.183Z,99262.68
2023-03-30T17:11:04.079Z,99257.88
2023-03-30T17:13:35.241Z,99255.08
2023-03-30T17:16:06.289Z,99254.13
2023-03-30T17:18:35.850Z,99247.69
2023-03-30T17:21:05.816Z,99240.84
2023-03-30T17:23:36.590Z,99239.63
2023-03-30T17:26:08.164Z,99231.33
2023-03-30T17:28:39.295Z,99223.87
2023-03-30T17:31:15.162Z,99227.47
2023-03-30T17:33:44.938Z,99236.46
2023-03-30T17:36:18.808Z,99237.60
2023-03-30T17:38:49.125Z,99245.73
2023-03-30T17:41:19.854Z,99256.06
2023-03-30T17:43:49.393Z,99258.60
2023-03-30T17:46:20.005Z,99248.16
2023-03-30T17:48:51.559Z,99245.32
2023-03-30T17:51:20.998Z,99237.01
2023-03-30T17:53:50.004Z,99226.05
2023-03-30T17:56:19.132Z,99226.55
2023-03-30T17:58:50.277Z,99242.23
2023-03-30T18:01:19.905Z,99253.45
2023-03-30T18:03:49.952Z,99262.66
2023-03-30T18:06:19.348Z,99272.01
2023-03-30T18:08:49.063Z,99275.63
2023-03-30T18:11:18.170Z,99272.75
2023-03-30T18:13:47.746Z,99271.39
2023-03-30T18:16:20.445Z,99273.02
2023-03-30T18:18:49.867Z,99277.20
2023-03-30T18:21:18.998Z,99271.63
2023-03-30T18:23:48.500Z,99264.95
2023-03-30T18:26:17.671Z,99272.86
2023-03-30T18:28:46.792Z,99280.69
2023-03-30T18:31:16.015Z,99288.59
2023-03-30T18:33:44.947Z,99290.13
2023-03-30T18:36:15.318Z,99292.33
2023-03-30T18:38:45.043Z,99291.98
2023-03-30T18:41:14.453Z,99297.88
2023-03-30T18:43:43.934Z,99300.64
2023-03-30T18:46:13.658Z,99307.27
2023-03-30T18:48:42.887Z,99310.57
2023-03-30T18:51:16.190Z,99317.44
2023-03-30T18:53:45.742Z,99317.83
2023-03-30T18:56:15.314Z,99317.18
2023-03-30T18:58:44.411Z,99303.57
2023-03-30T19:01:14.070Z,99300.01
2023-03-30T19:03:44.194Z,99300.56
2023-03-30T19:06:20.039Z,99297.23
2023-03-30T19:08:52.619Z,99292.02
2023-03-30T19:11:24.026Z,99289.44
2023-03-30T19:13:53.437Z,99291.61
2023-03-30T19:16:22.941Z,99292.84
2023-03-30T19:18:54.042Z,99296.77
2023-03-30T19:21:24.289Z,99289.52
2023-03-30T19:23:53.454Z,99292.45
2023-03-30T19:26:23.761Z,99290.02
2023-03-30T19:28:52.957Z,99295.52
2023-03-30T19:31:22.045Z,99296.95
2023-03-30T19:33:51.282Z,99297.69
2023-03-30T19:36:24.698Z,99291.45
2023-03-30T19:38:54.862Z,99289.60
2023-03-30T19:41:24.908Z,99292.30
2023-03-30T19:43:54.812Z,99291.77
2023-03-30T19:46:24.225Z,99294.39
2023-03-30T19:48:53.408Z,99294.70
2023-03-30T19:51:22.386Z,99295.65
2023-03-30T19:53:51.694Z,99292.62
2023-03-30T19:56:20.826Z,99290.88
2023-03-30T19:58:51.142Z,99286.87
2023-03-30T20:01:21.088Z,99297.11
2023-03-30T20:03:50.485Z,99297.34
2023-03-30T20:06:20.100Z,99297.95
2023-03-30T20:08:49.222Z,99292.67
2023-03-30T20:11:19.124Z,99290.42
2023-03-30T20:13:48.599Z,99287.91
2023-03-30T20:16:22.114Z,99288.26
2023-03-30T20:18:54.601Z,99293.77
2023-03-30T20:21:25.544Z,99292.24
2023-03-30T20:23:56.423Z,99291.02
2023-03-30T20:26:27.043Z,99294.41
2023-03-30T20:28:57.287Z,99291.54
2023-03-30T20:31:26.701Z,99295.10
2023-03-30T20:33:56.647Z,99295.73
2023-03-30T20:36:29.194Z,99297.55
2023-03-30T20:39:01.714Z,99297.15
2023-03-30T20:41:38.467Z,99296.27
2023-03-30T20:44:12.159Z,99290.05
2023-03-30T20:46:44.858Z,99285.57
2023-03-30T20:49:16.543Z,99281.78
2023-03-30T20:51:51.854Z,99278.14
2023-03-30T20:54:22.985Z,99275.34
2023-03-30T20:56:54.158Z,99275.42
2023-03-30T20:59:25.673Z,99268.19
2023-03-30T21:01:59.670Z,99272.63
2023-03-30T21:04:36.106Z,99278.39
2023-03-30T21:07:09.566Z,99282.21
2023-03-30T21:09:42.140Z,99288.94
2023-03-30T21:12:15.157Z,99279.50
2023-03-30T21:14:46.797Z,99270.19
2023-03-30T21:17:18.728Z,99267.98
2023-03-30T21:19:48.552Z,99265.19
2023-03-30T21:22:22.383Z,99271.46
2023-03-30T21:24:52.962Z,99270.17
2023-03-30T21:27:24.387Z,99264.60
2023-03-30T21:29:55.727Z,99264.77
2023-03-30T21:32:28.709Z,99268.36
2023-03-30T21:35:00.435Z,99275.18
2023-03-30T21:37:29.615Z,99272.87
2023-03-30T21:39:59.898Z,99278.35
2023-03-30T21:42:29.611Z,99271.85
2023-03-30T21:44:59.281Z,99275.77
2023-03-30T21:47:31.149Z,99277.20
2023-03-30T21:50:00.989Z,99277.48
2023-03-30T21:52:32.478Z,99278.05
2023-03-30T21:55:03.094Z,99275.22
2023-03-30T21:57:34.056Z,99266.36
2023-03-30T22:00:08.079Z,99262.59
2023-03-30T22:02:40.412Z,99264.63
2023-03-30T22:05:10.023Z,99269.27
2023-03-30T22:07:39.822Z,99267.04
2023-03-30T22:10:10.053Z,99272.30
2023-03-30T22:12:42.851Z,99273.27
2023-03-30T22:15:14.121Z,99273.63
2023-03-30T22:17:47.777Z,99269.76
2023-03-30T22:20:20.809Z,99266.44
2023-03-30T22:22:51.814Z,99271.39
2023-03-30T22:25:22.692Z,99275.68
2023-03-30T22:27:55.783Z,99273.79
2023-03-30T22:30:25.519Z,99267.27
2023-03-30T22:32:55.264Z,99264.05
2023-03-30T22:35:29.407Z,99265.98
2023-03-30T22:38:00.452Z,99263.03
2023-03-30T22:40:32.060Z,99266.02
2023-03-30T22:43:03.609Z,99260.21
2023-03-30T22:45:33.292Z,99261.59
2023-03-30T22:48:03.727Z,99256.67
2023-03-30T22:50:36.619Z,99257.06
2023-03-30T22:53:08.458Z,99257.93
2023-03-30T22:55:38.626Z,99254.42
2023-03-30T22:58:12.014Z,99253.61
2023-03-30T23:00:42.605Z,99247.45
2023-03-30T23:03:13.720Z,99237.46
2023-03-30T23:05:44.831Z,99230.83
2023-03-30T23:08:16.003Z,99222.48
2023-03-30T23:10:46.653Z,99205.79
2023-03-30T23:13:18.022Z,99209.90
2023-03-30T23:15:49.242Z,99204.47
2023-03-30T23:18:19.901Z,99203.24
2023-03-30T23:20:51.645Z,99205.42
2023-03-30T23:23:21.870Z,99207.25
2023-03-30T23:25:53.059Z,99206.39
2023-03-30T23:28:23.894Z,99203.09
2023-03-30T23:30:55.047Z,99206.55
2023-03-30T23:33:26.544Z,99197.29
2023-03-30T23:35:59.250Z,99186.75
2023-03-30T23:38:30.886Z,99182.63
2023-03-30T23:41:02.109Z,99174.91
2023-03-30T23:43:32.991Z,99167.67
2023-03-30T23:46:03.385Z,99164.50
2023-03-30T23:48:33.502Z,99170.19
2023-03-30T23:51:03.214Z,99166.14
2023-03-30T23:53:34.908Z,99163.86
2023-03-30T23:56:07.872Z,99163.94
2023-03-30T23:58:37.984Z,99163.57
